createdAt,value
2022-11-30T00:01:22.790Z,38.97
2022-11-30T00:03:53.560Z,37.57
2022-11-30T00:06:23.255Z,44.77
2022-11-30T00:08:57.274Z,35.70
2022-11-30T00:11:28.327Z,34.37
2022-11-30T00:13:55.341Z,36.43
2022-11-30T00:16:22.495Z,43.30
2022-11-30T00:18:49.563Z,40.77
2022-11-30T00:21:17.897Z,37.57
2022-11-30T00:23:47.710Z,37.53
2022-11-30T00:26:18.552Z,40.73
2022-11-30T00:28:46.131Z,40.13
2022-11-30T00:31:16.461Z,34.13
2022-11-30T00:33:44.219Z,37.90
2022-11-30T00:36:17.608Z,36.40
2022-11-30T00:38:45.813Z,39.83
2022-11-30T00:41:13.303Z,40.07
2022-11-30T00:43:40.161Z,35.97
2022-11-30T00:46:11.030Z,33.70
2022-11-30T00:48:39.581Z,40.20
2022-11-30T00:51:08.537Z,32.87
2022-11-30T00:53:35.846Z,38.63
2022-11-30T00:56:02.613Z,46.43
2022-11-30T00:58:29.369Z,39.03
2022-11-30T01:00:56.183Z,32.30
2022-11-30T01:03:22.962Z,36.53
2022-11-30T01:05:49.831Z,38.83
2022-11-30T01:08:16.803Z,42.47
2022-11-30T01:10:44.543Z,45.53
2022-11-30T01:13:14.478Z,42.83
2022-11-30T01:15:44.328Z,45.90
2022-11-30T01:18:11.981Z,38.23
2022-11-30T01:20:43.305Z,47.07
2022-11-30T01:23:11.146Z,49.77
2022-11-30T01:25:38.849Z,50.63
2022-11-30T01:28:06.328Z,58.23
2022-11-30T01:30:33.173Z,49.47
2022-11-30T01:33:04.769Z,51.67
2022-11-30T01:35:31.623Z,51.87
2022-11-30T01:37:58.386Z,45.90
2022-11-30T01:40:25.144Z,48.13
2022-11-30T01:42:51.913Z,62.23
2022-11-30T01:45:18.766Z,52.37
2022-11-30T01:47:53.743Z,45.40
2022-11-30T01:50:30.621Z,43.67
2022-11-30T01:52:58.614Z,41.13
2022-11-30T01:55:37.656Z,45.43
2022-11-30T01:58:11.525Z,51.80
2022-11-30T02:00:43.598Z,43.43
2022-11-30T02:03:34.551Z,48.77
2022-11-30T02:06:01.473Z,47.53
2022-11-30T02:08:30.833Z,47.50
2022-11-30T02:11:06.147Z,49.53
2022-11-30T02:14:25.769Z,43.73
2022-11-30T02:17:11.135Z,48.58
2022-11-30T02:20:13.571Z,51.97
2022-11-30T02:23:00.650Z,42.57
2022-11-30T02:25:55.311Z,37.23
2022-11-30T02:29:00.541Z,40.93
2022-11-30T02:31:41.483Z,44.00
2022-11-30T02:34:12.706Z,51.37
2022-11-30T02:36:40.461Z,45.27
2022-11-30T02:39:09.625Z,41.10
2022-11-30T02:41:39.253Z,47.13
2022-11-30T02:44:10.337Z,45.33
2022-11-30T02:47:01.418Z,51.27
2022-11-30T02:49:58.774Z,48.47
2022-11-30T02:52:29.251Z,44.67
2022-11-30T02:55:02.947Z,48.03
2022-11-30T02:57:29.872Z,50.57
2022-11-30T02:59:58.666Z,48.13
2022-11-30T03:02:25.474Z,45.83
2022-11-30T03:04:52.325Z,42.03
2022-11-30T03:07:19.094Z,46.23
2022-11-30T03:09:45.898Z,53.63
2022-11-30T03:12:12.685Z,50.23
2022-11-30T03:14:39.461Z,52.40
2022-11-30T03:17:07.021Z,49.97
2022-11-30T03:19:34.687Z,51.10
2022-11-30T03:22:01.444Z,53.67
2022-11-30T03:24:28.218Z,46.20
2022-11-30T03:26:55.037Z,50.03
2022-11-30T03:29:21.792Z,53.23
2022-11-30T03:31:48.571Z,44.37
2022-11-30T03:34:15.398Z,49.17
2022-11-30T03:36:42.233Z,51.43
2022-11-30T03:39:09.552Z,44.93
2022-11-30T03:41:36.707Z,43.73
2022-11-30T03:44:03.568Z,43.83
2022-11-30T03:46:30.369Z,40.43
2022-11-30T03:48:57.125Z,45.53
2022-11-30T03:51:23.890Z,44.43
2022-11-30T03:53:50.777Z,43.70
2022-11-30T03:56:17.897Z,41.80
2022-11-30T03:58:44.735Z,43.03
2022-11-30T04:01:19.365Z,43.35
2022-11-30T04:03:46.192Z,43.10
2022-11-30T04:06:13.238Z,44.27
2022-11-30T04:08:41.350Z,41.53
2022-11-30T04:11:09.589Z,51.53
2022-11-30T04:13:38.471Z,49.77
2022-11-30T04:16:06.945Z,53.57
2022-11-30T04:18:35.868Z,58.87
2022-11-30T04:21:03.735Z,59.23
2022-11-30T04:23:34.639Z,53.87
2022-11-30T04:26:04.641Z,54.10
2022-11-30T04:28:31.557Z,63.20
2022-11-30T04:31:00.397Z,67.93
2022-11-30T04:33:30.489Z,59.07
2022-11-30T04:36:02.408Z,61.37
2022-11-30T04:38:30.097Z,63.00
2022-11-30T04:40:57.194Z,59.03
2022-11-30T04:43:24.920Z,64.37
2022-11-30T04:45:52.121Z,62.47
2022-11-30T04:48:19.702Z,66.00
2022-11-30T04:50:46.510Z,67.73
2022-11-30T04:53:13.252Z,71.20
2022-11-30T04:55:40.401Z,71.27
2022-11-30T04:58:07.416Z,70.13
2022-11-30T05:00:35.584Z,64.77
2022-11-30T05:03:02.606Z,63.93
2022-11-30T05:05:29.463Z,66.00
2022-11-30T05:07:59.477Z,65.87
2022-11-30T05:10:28.399Z,72.07
2022-11-30T05:12:56.991Z,77.00
2022-11-30T05:15:23.799Z,83.47
2022-11-30T05:17:50.563Z,84.03
2022-11-30T05:20:17.590Z,86.97
2022-11-30T05:22:44.402Z,85.63
2022-11-30T05:25:11.420Z,72.67
2022-11-30T05:27:38.525Z,80.43
2022-11-30T05:30:06.873Z,72.53
2022-11-30T05:32:33.716Z,67.90
2022-11-30T05:35:00.476Z,65.20
2022-11-30T05:37:27.262Z,72.53
2022-11-30T05:39:53.989Z,73.83
2022-11-30T05:42:21.096Z,57.20
2022-11-30T05:44:48.359Z,54.13
2022-11-30T05:47:16.302Z,62.20
2022-11-30T05:49:43.458Z,58.00
2022-11-30T05:52:10.456Z,69.77
2022-11-30T05:54:37.367Z,70.60
2022-11-30T05:57:05.326Z,50.20
2022-11-30T05:59:32.138Z,52.70
2022-11-30T06:01:59.054Z,50.70
2022-11-30T06:04:25.996Z,46.17
2022-11-30T06:06:55.549Z,43.97
2022-11-30T06:09:23.276Z,49.03
2022-11-30T06:11:50.561Z,44.93
2022-11-30T06:14:17.910Z,35.50
2022-11-30T06:16:44.846Z,33.07
2022-11-30T06:19:11.776Z,30.67
2022-11-30T06:21:38.530Z,28.90
2022-11-30T06:24:05.767Z,26.33
2022-11-30T06:26:32.513Z,21.60
2022-11-30T06:28:59.261Z,22.33
2022-11-30T06:31:26.020Z,28.57
2022-11-30T06:33:56.587Z,20.43
2022-11-30T06:36:24.147Z,20.03
2022-11-30T06:38:51.644Z,21.90
2022-11-30T06:41:18.770Z,23.20
2022-11-30T06:43:45.611Z,20.10
2022-11-30T06:46:12.820Z,17.60
2022-11-30T06:48:39.735Z,21.23
2022-11-30T06:51:10.800Z,16.23
2022-11-30T06:53:38.024Z,17.93
2022-11-30T06:56:10.833Z,19.33
2022-11-30T06:58:42.000Z,21.27
2022-11-30T07:01:12.864Z,25.13
2022-11-30T07:03:40.472Z,26.67
2022-11-30T07:06:13.091Z,19.50
2022-11-30T07:08:41.331Z,24.97
2022-11-30T07:11:10.346Z,21.37
2022-11-30T07:13:37.614Z,19.20
2022-11-30T07:16:07.296Z,22.70
2022-11-30T07:18:34.914Z,26.37
2022-11-30T07:21:04.210Z,23.73
2022-11-30T07:23:55.815Z,29.00
2022-11-30T07:26:24.624Z,26.67
2022-11-30T07:28:58.198Z,27.40
2022-11-30T07:31:29.148Z,28.67
2022-11-30T07:33:58.448Z,24.70
2022-11-30T07:36:27.787Z,32.70
2022-11-30T07:38:54.540Z,27.63
2022-11-30T07:41:21.994Z,33.77
2022-11-30T07:43:48.789Z,25.50
2022-11-30T07:46:17.538Z,31.63
2022-11-30T07:48:46.388Z,30.07
2022-11-30T07:51:20.638Z,29.47
2022-11-30T07:53:48.398Z,26.07
2022-11-30T07:56:20.442Z,24.93
2022-11-30T07:58:49.741Z,30.33
2022-11-30T08:01:21.448Z,30.48
2022-11-30T08:03:50.346Z,30.48
2022-11-30T08:06:20.904Z,32.35
2022-11-30T08:08:51.646Z,29.07
2022-11-30T08:11:24.373Z,29.73
2022-11-30T08:13:51.338Z,35.77
2022-11-30T08:16:22.498Z,34.40
2022-11-30T08:18:49.869Z,32.58
2022-11-30T08:21:20.071Z,29.40
2022-11-30T08:23:51.573Z,30.23
2022-11-30T08:26:30.936Z,26.23
2022-11-30T08:29:00.146Z,30.10
2022-11-30T08:31:36.450Z,33.30
2022-11-30T08:34:10.565Z,28.17
2022-11-30T08:36:38.945Z,28.13
2022-11-30T08:39:08.979Z,29.90
2022-11-30T08:41:36.831Z,27.03
2022-11-30T08:44:03.679Z,30.67
2022-11-30T08:49:23.458Z,27.30
2022-11-30T08:54:47.480Z,29.23
2022-11-30T08:57:20.403Z,28.27
2022-11-30T08:59:47.461Z,29.83
2022-11-30T09:02:17.846Z,23.63
2022-11-30T09:04:49.453Z,24.57
2022-11-30T09:07:16.816Z,25.10
2022-11-30T09:09:43.966Z,34.27
2022-11-30T09:12:10.785Z,25.33
2022-11-30T09:14:37.619Z,20.93
2022-11-30T09:17:05.018Z,20.90
2022-11-30T09:19:31.865Z,25.07
2022-11-30T09:21:58.685Z,24.50
2022-11-30T09:24:25.501Z,21.80
2022-11-30T09:26:56.888Z,26.57
2022-11-30T09:29:24.253Z,21.33
2022-11-30T09:31:51.048Z,21.07
2022-11-30T09:34:17.805Z,20.50
2022-11-30T09:36:44.595Z,21.17
2022-11-30T09:39:12.777Z,18.33
2022-11-30T09:41:57.485Z,19.53
2022-11-30T09:44:30.189Z,21.17
2022-11-30T09:47:33.927Z,17.60
2022-11-30T09:50:24.601Z,19.77
2022-11-30T09:52:58.293Z,23.23
2022-11-30T09:55:31.086Z,20.90
2022-11-30T09:58:04.753Z,21.10
2022-11-30T10:00:33.995Z,40.50
2022-11-30T10:03:06.185Z,20.93
2022-11-30T10:05:51.895Z,19.50
2022-11-30T10:09:16.272Z,18.93
2022-11-30T10:11:48.446Z,18.27
2022-11-30T10:14:55.975Z,18.47
2022-11-30T10:17:41.433Z,19.47
2022-11-30T10:20:51.160Z,17.70
2022-11-30T10:23:36.821Z,17.57
2022-11-30T10:26:16.757Z,18.37
2022-11-30T10:28:57.717Z,17.87
2022-11-30T10:31:36.756Z,16.47
2022-11-30T10:34:28.807Z,16.67
2022-11-30T10:37:06.266Z,16.23
2022-11-30T10:40:01.412Z,17.43
2022-11-30T10:43:08.110Z,15.43
2022-11-30T10:45:44.488Z,17.20
2022-11-30T10:48:37.269Z,15.30
2022-11-30T10:51:04.657Z,13.67
2022-11-30T10:53:33.996Z,14.87
2022-11-30T10:56:09.724Z,15.17
2022-11-30T10:59:00.755Z,16.53
2022-11-30T11:01:39.181Z,15.73
2022-11-30T11:04:27.515Z,17.93
2022-11-30T11:07:10.349Z,16.77
2022-11-30T11:09:46.993Z,13.63
2022-11-30T11:12:30.763Z,13.97
2022-11-30T11:15:27.046Z,10.97
2022-11-30T11:18:19.275Z,11.83
2022-11-30T11:20:46.175Z,11.63
2022-11-30T11:23:40.427Z,14.50
2022-11-30T11:26:21.917Z,10.40
2022-11-30T11:28:52.499Z,10.93
2022-11-30T11:31:43.998Z,12.70
2022-11-30T11:34:27.018Z,10.80
2022-11-30T11:37:33.924Z,12.67
2022-11-30T11:40:17.512Z,12.10
2022-11-30T11:42:52.068Z,12.43
2022-11-30T11:45:26.047Z,12.33
2022-11-30T11:48:28.706Z,12.07
2022-11-30T11:51:08.555Z,15.57
2022-11-30T11:53:51.658Z,13.27
2022-11-30T11:56:28.720Z,12.83
2022-11-30T11:59:19.257Z,14.03
2022-11-30T12:01:55.188Z,13.97
2022-11-30T12:05:05.500Z,12.53
2022-11-30T12:07:56.235Z,12.67
2022-11-30T12:13:23.333Z,11.53
2022-11-30T12:16:26.749Z,10.53
2022-11-30T12:19:15.249Z,10.63
2022-11-30T12:22:42.585Z,15.20
2022-11-30T12:25:28.064Z,12.00
2022-11-30T12:28:34.072Z,9.73
2022-11-30T12:31:15.690Z,11.03
2022-11-30T12:34:04.022Z,11.03
2022-11-30T12:36:55.327Z,10.87
2022-11-30T12:39:47.647Z,12.50
2022-11-30T12:42:31.225Z,11.43
2022-11-30T12:45:30.816Z,10.20
2022-11-30T12:48:27.471Z,10.13
2022-11-30T12:51:03.095Z,17.03
2022-11-30T12:53:53.953Z,12.67
2022-11-30T12:56:45.833Z,12.33
2022-11-30T12:59:29.463Z,10.40
2022-11-30T13:02:28.303Z,10.20
2022-11-30T13:05:21.513Z,11.47
2022-11-30T13:07:55.491Z,9.23
2022-11-30T13:10:38.960Z,9.03
2022-11-30T13:13:13.405Z,11.47
2022-11-30T13:15:41.718Z,11.33
2022-11-30T13:18:17.875Z,11.97
2022-11-30T13:21:13.599Z,21.30
2022-11-30T13:24:02.943Z,9.20
2022-11-30T13:26:59.399Z,9.50
2022-11-30T13:30:17.018Z,8.37
2022-11-30T13:32:59.457Z,9.03
2022-11-30T13:35:29.410Z,8.50
2022-11-30T13:41:08.389Z,7.33
2022-11-30T13:43:47.800Z,5.77
2022-11-30T13:46:23.485Z,6.40
2022-11-30T13:49:21.176Z,5.33
2022-11-30T13:52:13.198Z,6.50
2022-11-30T13:54:47.913Z,6.70
2022-11-30T13:57:29.965Z,6.63
2022-11-30T14:00:31.791Z,8.53
2022-11-30T14:03:20.365Z,7.33
2022-11-30T14:05:48.073Z,9.83
2022-11-30T14:08:23.755Z,7.40
2022-11-30T14:11:15.129Z,7.83
2022-11-30T14:13:42.253Z,8.73
2022-11-30T14:16:27.680Z,8.20
2022-11-30T14:18:56.982Z,8.53
2022-11-30T14:21:34.419Z,7.30
2022-11-30T14:24:18.940Z,7.30
2022-11-30T14:26:51.009Z,9.40
2022-11-30T14:29:32.828Z,14.70
2022-11-30T14:32:25.552Z,13.30
2022-11-30T14:35:03.682Z,11.83
2022-11-30T14:37:42.956Z,15.63
2022-11-30T14:40:18.993Z,10.07
2022-11-30T14:42:52.861Z,11.27
2022-11-30T14:45:32.796Z,13.90
2022-11-30T14:48:14.644Z,13.43
2022-11-30T14:50:50.286Z,7.83
2022-11-30T14:53:55.013Z,11.03
2022-11-30T14:56:47.290Z,8.93
2022-11-30T14:59:25.960Z,7.47
2022-11-30T15:02:03.940Z,10.87
2022-11-30T15:04:31.729Z,7.50
2022-11-30T15:07:00.233Z,11.80
2022-11-30T15:09:32.361Z,10.13
2022-11-30T15:12:00.035Z,9.87
2022-11-30T15:14:27.099Z,9.53
2022-11-30T15:16:58.170Z,11.23
2022-11-30T15:19:28.624Z,12.17
2022-11-30T15:21:57.769Z,11.73
2022-11-30T15:24:26.685Z,14.67
2022-11-30T15:27:11.036Z,15.43
2022-11-30T15:29:44.305Z,14.10
2022-11-30T15:32:22.949Z,15.43
2022-11-30T15:34:56.810Z,17.03
2022-11-30T15:37:35.263Z,17.20
2022-11-30T15:40:06.609Z,17.30
2022-11-30T15:42:41.352Z,18.53
2022-11-30T15:45:11.671Z,16.63
2022-11-30T15:47:39.578Z,16.93
2022-11-30T15:50:40.706Z,17.27
2022-11-30T15:53:35.219Z,16.03
2022-11-30T15:56:21.704Z,17.93
2022-11-30T15:59:25.367Z,16.83
2022-11-30T16:02:02.445Z,17.93
2022-11-30T16:04:58.266Z,20.13
2022-11-30T16:07:48.763Z,19.80
2022-11-30T16:10:30.474Z,20.27
2022-11-30T16:12:57.369Z,16.47
2022-11-30T16:15:29.626Z,18.70
2022-11-30T16:18:21.101Z,15.30
2022-11-30T16:20:52.806Z,16.40
2022-11-30T16:23:20.521Z,18.47
2022-11-30T16:25:49.396Z,15.70
2022-11-30T16:28:18.864Z,15.43
2022-11-30T16:30:46.852Z,16.90
2022-11-30T16:33:20.240Z,17.20
2022-11-30T16:35:55.780Z,17.60
2022-11-30T16:38:24.715Z,17.63
2022-11-30T16:40:54.079Z,16.80
2022-11-30T16:43:26.181Z,17.20
2022-11-30T16:45:53.010Z,15.70
2022-11-30T16:48:20.032Z,14.90
2022-11-30T16:50:47.128Z,17.63
2022-11-30T16:53:15.098Z,17.67
2022-11-30T16:55:42.045Z,17.43
2022-11-30T16:58:09.070Z,16.73
2022-11-30T17:00:39.485Z,17.20
2022-11-30T17:03:26.578Z,16.17
2022-11-30T17:05:53.440Z,15.07
2022-11-30T17:08:20.500Z,15.00
2022-11-30T17:10:53.266Z,16.33
2022-11-30T17:13:21.431Z,17.43
2022-11-30T17:15:49.160Z,16.50
2022-11-30T17:18:16.094Z,18.30
2022-11-30T17:20:43.212Z,19.47
2022-11-30T17:23:10.169Z,25.93
2022-11-30T17:25:36.932Z,18.83
2022-11-30T17:28:03.966Z,21.90
2022-11-30T17:30:30.862Z,21.70
2022-11-30T17:32:57.664Z,23.23
2022-11-30T17:35:24.404Z,27.77
2022-11-30T17:37:54.291Z,26.50
2022-11-30T17:40:21.094Z,22.87
2022-11-30T17:42:47.907Z,23.00
2022-11-30T17:45:14.767Z,17.37
2022-11-30T17:47:41.599Z,23.23
2022-11-30T17:50:09.375Z,20.03
2022-11-30T17:52:36.207Z,20.27
2022-11-30T17:55:03.176Z,21.97
2022-11-30T17:57:29.947Z,19.13
2022-11-30T17:59:56.748Z,19.20
2022-11-30T18:02:23.668Z,16.97
2022-11-30T18:04:52.491Z,17.00
2022-11-30T18:07:20.086Z,17.07
2022-11-30T18:09:47.134Z,20.00
2022-11-30T18:12:13.990Z,17.03
2022-11-30T18:14:40.849Z,19.60
2022-11-30T18:17:07.688Z,13.93
2022-11-30T18:19:34.554Z,17.20
2022-11-30T18:22:01.391Z,16.07
2022-11-30T18:24:28.309Z,14.67
2022-11-30T18:26:55.084Z,20.03
2022-11-30T18:29:21.962Z,17.37
2022-11-30T18:31:48.706Z,17.47
2022-11-30T18:34:15.684Z,20.03
2022-11-30T18:36:42.781Z,20.03
2022-11-30T18:39:09.929Z,19.17
2022-11-30T18:41:36.806Z,16.10
2022-11-30T18:44:03.940Z,16.20
2022-11-30T18:46:30.812Z,16.20
2022-11-30T18:48:59.134Z,17.67
2022-11-30T18:51:29.156Z,15.53
2022-11-30T18:53:59.755Z,14.60
2022-11-30T18:56:30.947Z,15.80
2022-11-30T18:59:06.023Z,16.60
2022-11-30T19:01:33.712Z,15.97
2022-11-30T19:04:05.967Z,13.57
2022-11-30T19:06:33.199Z,16.97
2022-11-30T19:09:12.933Z,13.00
2022-11-30T19:11:41.439Z,14.73
2022-11-30T19:14:12.578Z,15.27
2022-11-30T19:16:39.925Z,17.23
2022-11-30T19:19:12.678Z,17.50
2022-11-30T19:21:42.870Z,16.30
2022-11-30T19:24:09.812Z,17.03
2022-11-30T19:26:38.148Z,17.73
2022-11-30T19:29:04.932Z,17.93
2022-11-30T19:31:31.709Z,16.03
2022-11-30T19:33:58.481Z,17.50
2022-11-30T19:36:28.645Z,15.07
2022-11-30T19:38:58.342Z,15.27
2022-11-30T19:41:25.251Z,14.60
2022-11-30T19:44:03.902Z,17.07
2022-11-30T19:46:33.054Z,16.90
2022-11-30T19:49:01.623Z,13.87
2022-11-30T19:51:30.468Z,15.07
2022-11-30T19:53:59.209Z,13.33
2022-11-30T19:56:28.567Z,14.87
2022-11-30T19:59:02.687Z,15.30
2022-11-30T20:01:32.139Z,15.20
2022-11-30T20:03:59.287Z,14.97
2022-11-30T20:06:31.900Z,13.20
2022-11-30T20:08:58.720Z,15.30
2022-11-30T20:11:25.606Z,17.93
2022-11-30T20:13:52.750Z,22.93
2022-11-30T20:16:22.432Z,13.43
2022-11-30T20:19:01.715Z,16.33
2022-11-30T20:21:34.826Z,15.37
2022-11-30T20:24:06.103Z,15.17
2022-11-30T20:26:43.211Z,14.37
2022-11-30T20:29:16.290Z,13.27
2022-11-30T20:31:45.799Z,13.43
2022-11-30T20:34:12.653Z,13.93
2022-11-30T20:36:39.496Z,13.73
2022-11-30T20:39:07.087Z,12.47
2022-11-30T20:41:34.298Z,13.87
2022-11-30T20:44:01.149Z,12.93
2022-11-30T20:46:31.666Z,13.17
2022-11-30T20:48:59.816Z,13.90
2022-11-30T20:51:33.674Z,11.90
2022-11-30T20:54:05.636Z,12.33
2022-11-30T20:56:37.186Z,15.00
2022-11-30T20:59:14.243Z,12.33
2022-11-30T21:01:44.269Z,14.30
2022-11-30T21:04:11.619Z,11.83
2022-11-30T21:06:38.823Z,13.33
2022-11-30T21:09:05.612Z,10.37
2022-11-30T21:11:32.388Z,17.30
2022-11-30T21:13:59.541Z,15.37
2022-11-30T21:16:29.312Z,13.17
2022-11-30T21:19:01.004Z,13.10
2022-11-30T21:21:32.011Z,12.03
2022-11-30T21:24:02.243Z,19.40
2022-11-30T21:26:39.039Z,13.73
2022-11-30T21:29:11.504Z,10.20
2022-11-30T21:31:38.718Z,11.23
2022-11-30T21:34:05.639Z,10.77
2022-11-30T21:36:32.755Z,11.83
2022-11-30T21:39:06.122Z,10.70
2022-11-30T21:41:39.527Z,11.50
2022-11-30T21:44:11.264Z,11.47
2022-11-30T21:46:38.851Z,11.63
2022-11-30T21:49:06.392Z,10.43
2022-11-30T21:51:33.309Z,13.77
2022-11-30T21:54:04.828Z,10.33
2022-11-30T21:56:36.375Z,12.20
2022-11-30T21:59:07.026Z,11.53
2022-11-30T22:01:40.557Z,11.80
2022-11-30T22:04:10.748Z,9.97
2022-11-30T22:06:39.240Z,10.43
2022-11-30T22:09:16.569Z,11.83
2022-11-30T22:11:45.350Z,10.33
2022-11-30T22:14:17.071Z,13.37
2022-11-30T22:16:44.496Z,13.13
2022-11-30T22:19:11.365Z,11.77
2022-11-30T22:21:38.406Z,10.53
2022-11-30T22:24:10.330Z,11.37
2022-11-30T22:26:40.284Z,10.73
2022-11-30T22:29:14.041Z,10.23
2022-11-30T22:31:44.726Z,11.90
2022-11-30T22:34:12.527Z,12.00
2022-11-30T22:36:42.401Z,10.20
2022-11-30T22:39:16.614Z,10.97
2022-11-30T22:41:45.501Z,8.93
2022-11-30T22:44:15.362Z,9.90
2022-11-30T22:46:44.281Z,9.87
2022-11-30T22:49:20.171Z,10.57
2022-11-30T22:51:47.911Z,8.53
2022-11-30T22:54:14.766Z,10.63
2022-11-30T22:56:41.976Z,9.77
2022-11-30T22:59:12.403Z,9.07
2022-11-30T23:01:49.524Z,9.80
2022-11-30T23:04:19.910Z,8.37
2022-11-30T23:06:49.115Z,9.37
2022-11-30T23:09:20.631Z,9.07
2022-11-30T23:11:48.696Z,11.57
2022-11-30T23:14:16.306Z,9.33
2022-11-30T23:16:44.311Z,10.27
2022-11-30T23:19:13.367Z,10.43
2022-11-30T23:21:44.886Z,10.33
2022-11-30T23:24:20.621Z,10.53
2022-11-30T23:26:48.435Z,10.70
2022-11-30T23:29:17.180Z,9.53
2022-11-30T23:31:45.906Z,11.40
2022-11-30T23:34:19.783Z,9.33
2022-11-30T23:36:47.680Z,9.87
2022-11-30T23:39:17.927Z,11.17
2022-11-30T23:41:45.820Z,8.33
2022-11-30T23:44:13.401Z,9.20
2022-11-30T23:46:40.490Z,10.17
2022-11-30T23:49:08.187Z,8.90
2022-11-30T23:51:35.611Z,10.10
2022-11-30T23:54:02.445Z,10.60
2022-11-30T23:56:29.284Z,9.77
2022-11-30T23:58:56.079Z,11.13
